Terminal Aerodrome Forecast
Issued by NWS

Home | Current Version | Previous Version | Graphics & Text | Print | Product List | Glossary On
Versions: 1 2 3 4 5 6 7 8 9 10 11 12 13 14
000
FTUS43 KOAX 271720
TAFCDR
TAF
KCDR 271720Z 2718/2818 14013G21KT P6SM SCT150
     FM272100 17013G20KT P6SM VCTS BKN120CB
     FM280300 32018G27KT P6SM SCT150
     FM281000 31010KT P6SM SKC=

USA.gov is the U.S. government's official web portal to all federal, state and local government web resources and services.